createdAt,value
2022-10-15T00:01:56.021Z,2.30
2022-10-15T00:06:47.697Z,1.15
2022-10-15T00:11:40.402Z,1.83
2022-10-15T00:16:33.636Z,1.90
2022-10-15T00:21:25.853Z,1.67
2022-10-15T00:26:21.929Z,2.70
2022-10-15T00:31:16.207Z,2.88
2022-10-15T00:36:14.337Z,2.83
2022-10-15T00:41:07.999Z,1.75
2022-10-15T00:45:59.652Z,3.33
2022-10-15T00:50:51.288Z,2.53
2022-10-15T00:55:43.913Z,1.80
2022-10-15T01:00:36.009Z,1.85
2022-10-15T01:05:28.721Z,2.78
2022-10-15T01:10:21.758Z,2.08
2022-10-15T01:15:28.714Z,2.00
2022-10-15T01:20:26.014Z,2.78
2022-10-15T01:25:23.743Z,4.63
2022-10-15T01:30:50.917Z,3.60
2022-10-15T01:35:50.402Z,3.75
2022-10-15T01:40:51.552Z,3.03
2022-10-15T01:45:52.975Z,1.48
2022-10-15T01:50:48.687Z,2.35
2022-10-15T01:55:44.159Z,1.13
2022-10-15T02:00:35.860Z,1.40
2022-10-15T02:05:35.570Z,1.52
2022-10-15T02:10:48.668Z,3.00
2022-10-15T02:16:02.496Z,2.42
2022-10-15T02:21:03.384Z,2.78
2022-10-15T02:25:56.693Z,4.55
2022-10-15T02:30:52.930Z,5.72
2022-10-15T02:35:46.780Z,4.70
2022-10-15T02:40:40.696Z,6.63
2022-10-15T02:45:32.454Z,4.35
2022-10-15T02:50:24.226Z,4.15
2022-10-15T02:55:15.994Z,3.35
2022-10-15T03:00:08.488Z,2.53
2022-10-15T03:05:00.212Z,3.83
2022-10-15T03:09:51.895Z,2.80
2022-10-15T03:14:43.531Z,6.28
2022-10-15T03:19:36.147Z,2.83
2022-10-15T03:24:27.901Z,3.03
2022-10-15T03:29:19.608Z,2.58
2022-10-15T03:34:11.271Z,3.00
2022-10-15T03:39:03.081Z,2.38
2022-10-15T03:43:54.715Z,1.75
2022-10-15T03:48:50.244Z,2.00
2022-10-15T03:53:41.848Z,1.70
2022-10-15T03:58:33.646Z,1.98
2022-10-15T04:03:25.359Z,3.00
2022-10-15T04:08:17.123Z,3.25
2022-10-15T04:13:08.745Z,2.05
2022-10-15T04:18:00.333Z,2.28
2022-10-15T04:22:52.049Z,1.77
2022-10-15T04:27:43.751Z,3.63
2022-10-15T04:32:35.623Z,1.95
2022-10-15T04:37:27.284Z,3.10
2022-10-15T04:42:19.010Z,1.38
2022-10-15T04:47:11.031Z,1.85
2022-10-15T04:52:02.762Z,3.00
2022-10-15T04:56:54.568Z,1.60
2022-10-15T05:01:46.215Z,3.17
2022-10-15T05:06:38.193Z,1.35
2022-10-15T05:11:29.982Z,1.85
2022-10-15T05:16:25.059Z,0.73
2022-10-15T05:21:17.723Z,2.05
2022-10-15T05:26:13.342Z,0.55
2022-10-15T05:31:07.693Z,1.23
2022-10-15T05:36:28.364Z,0.85
2022-10-15T05:41:20.638Z,2.42
2022-10-15T05:46:12.237Z,1.85
2022-10-15T05:51:09.041Z,0.75
2022-10-15T05:56:00.729Z,1.33
2022-10-15T06:00:57.309Z,2.42
2022-10-15T06:05:49.188Z,1.17
2022-10-15T06:10:40.900Z,0.80
2022-10-15T06:15:33.582Z,2.42
2022-10-15T06:20:25.432Z,2.97
2022-10-15T06:25:17.147Z,2.35
2022-10-15T06:30:09.383Z,5.20
2022-10-15T06:35:01.022Z,2.72
2022-10-15T06:39:52.724Z,6.45
2022-10-15T06:44:44.320Z,1.17
2022-10-15T06:49:36.148Z,3.80
2022-10-15T06:54:27.868Z,1.92
2022-10-15T06:59:19.806Z,3.20
2022-10-15T07:04:11.582Z,3.55
2022-10-15T07:09:04.350Z,2.13
2022-10-15T07:13:58.100Z,3.13
2022-10-15T07:18:49.998Z,3.20
2022-10-15T07:23:41.664Z,4.18
2022-10-15T07:28:33.438Z,6.32
2022-10-15T07:33:25.183Z,3.17
2022-10-15T07:38:18.082Z,5.13
2022-10-15T07:43:09.775Z,5.22
2022-10-15T07:48:01.680Z,4.03
2022-10-15T07:52:53.453Z,1.58
2022-10-15T07:57:45.184Z,3.17
2022-10-15T08:02:36.914Z,2.42
2022-10-15T08:07:28.633Z,0.45
2022-10-15T08:12:20.547Z,2.75
2022-10-15T08:17:12.315Z,1.30
2022-10-15T08:22:04.015Z,1.55
2022-10-15T08:26:57.771Z,1.45
2022-10-15T08:31:49.567Z,4.45
2022-10-15T08:36:41.359Z,3.42
2022-10-15T08:41:40.496Z,4.53
2022-10-15T08:46:39.652Z,2.85
2022-10-15T08:51:46.617Z,4.10
2022-10-15T08:56:43.280Z,6.40
2022-10-15T09:01:43.659Z,4.00
2022-10-15T09:06:38.526Z,7.35
2022-10-15T09:11:42.286Z,2.47
2022-10-15T09:16:38.470Z,6.18
2022-10-15T09:21:32.289Z,4.85
2022-10-15T09:26:39.267Z,4.70
2022-10-15T09:31:40.542Z,6.20
2022-10-15T09:36:46.501Z,6.55
2022-10-15T09:42:16.426Z,5.72
2022-10-15T09:47:24.780Z,2.45
2022-10-15T09:52:38.357Z,6.05
2022-10-15T09:57:33.337Z,5.70
2022-10-15T10:02:26.746Z,7.63
2022-10-15T10:07:37.593Z,5.20
2022-10-15T10:12:34.106Z,7.47
2022-10-15T10:17:30.464Z,3.90
2022-10-15T10:22:22.351Z,4.43
2022-10-15T10:27:28.340Z,3.08
2022-10-15T10:32:23.689Z,3.50
2022-10-15T10:37:15.674Z,4.55
2022-10-15T10:42:24.904Z,5.75
2022-10-15T10:47:16.733Z,8.80
2022-10-15T10:52:20.843Z,2.63
2022-10-15T10:57:15.842Z,4.57
2022-10-15T11:02:13.266Z,3.50
2022-10-15T11:07:09.917Z,7.50
2022-10-15T11:12:10.656Z,4.43
2022-10-15T11:17:20.019Z,2.80
2022-10-15T11:22:39.603Z,4.97
2022-10-15T11:27:59.213Z,3.22
2022-10-15T11:33:12.523Z,4.07
2022-10-15T11:38:29.664Z,5.78
2022-10-15T11:43:40.053Z,3.22
2022-10-15T11:48:40.327Z,1.88
2022-10-15T11:53:31.843Z,3.25
2022-10-15T11:58:54.938Z,2.38
2022-10-15T12:03:58.681Z,4.25
2022-10-15T12:08:52.462Z,4.10
2022-10-15T12:13:56.299Z,6.35
2022-10-15T12:19:06.742Z,3.65
2022-10-15T12:23:58.518Z,4.30
2022-10-15T12:28:53.355Z,5.43
2022-10-15T12:33:50.232Z,3.67
2022-10-15T12:38:52.176Z,7.28
2022-10-15T12:43:52.919Z,7.70
2022-10-15T12:48:46.832Z,5.53
2022-10-15T12:53:42.972Z,6.47
2022-10-15T12:58:37.510Z,9.77
2022-10-15T13:03:38.089Z,3.97
2022-10-15T13:08:31.497Z,8.25
2022-10-15T13:13:27.405Z,8.88
2022-10-15T13:18:22.591Z,6.43
2022-10-15T13:23:29.679Z,7.22
2022-10-15T13:28:34.604Z,3.50
2022-10-15T13:33:27.109Z,7.20
2022-10-15T13:38:25.363Z,7.50
2022-10-15T13:43:22.743Z,6.90
2022-10-15T13:48:22.146Z,5.85
2022-10-15T13:53:27.187Z,8.20
2022-10-15T13:58:26.649Z,4.82
2022-10-15T14:03:22.634Z,5.47
2022-10-15T14:08:19.422Z,4.05
2022-10-15T14:13:11.606Z,5.80
2022-10-15T14:18:03.670Z,6.97
2022-10-15T14:22:55.614Z,4.97
2022-10-15T14:27:47.362Z,4.63
2022-10-15T14:32:52.118Z,7.18
2022-10-15T14:37:43.845Z,6.85
2022-10-15T14:43:01.650Z,13.50
2022-10-15T14:47:58.739Z,5.20
2022-10-15T14:52:53.080Z,5.10
2022-10-15T14:57:45.984Z,6.93
2022-10-15T15:02:37.803Z,6.53
2022-10-15T15:07:29.540Z,8.90
2022-10-15T15:12:27.879Z,10.07
2022-10-15T15:17:23.061Z,6.03
2022-10-15T15:22:18.861Z,5.22
2022-10-15T15:27:23.262Z,5.22
2022-10-15T15:32:15.953Z,6.45
2022-10-15T15:37:36.717Z,4.75
2022-10-15T15:42:28.603Z,6.55
2022-10-15T15:47:20.476Z,6.15
2022-10-15T15:52:18.873Z,6.05
2022-10-15T15:57:11.170Z,8.30
2022-10-15T16:02:02.863Z,5.82
2022-10-15T16:06:54.795Z,4.30
2022-10-15T16:11:46.422Z,6.55
2022-10-15T16:16:38.313Z,6.53
2022-10-15T16:21:30.063Z,8.63
2022-10-15T16:26:22.070Z,7.13
2022-10-15T16:31:15.233Z,5.68
2022-10-15T16:36:07.074Z,7.00
2022-10-15T16:40:58.890Z,6.70
2022-10-15T16:46:00.344Z,6.85
2022-10-15T16:51:10.773Z,9.48
2022-10-15T16:56:05.056Z,7.70
2022-10-15T17:01:00.900Z,6.43
2022-10-15T17:06:00.405Z,7.82
2022-10-15T17:10:52.229Z,7.97
2022-10-15T17:15:43.868Z,7.80
2022-10-15T17:20:43.716Z,10.55
2022-10-15T17:25:36.281Z,9.60
2022-10-15T17:30:28.005Z,5.95
2022-10-15T17:35:21.117Z,12.02
2022-10-15T17:40:13.654Z,8.55
2022-10-15T17:45:05.684Z,10.25
2022-10-15T17:49:57.499Z,6.03
2022-10-15T17:54:49.254Z,7.70
2022-10-15T17:59:40.885Z,8.43
2022-10-15T18:04:32.527Z,7.05
2022-10-15T18:09:28.304Z,5.55
2022-10-15T18:14:21.971Z,9.00
2022-10-15T18:19:14.237Z,8.65
2022-10-15T18:24:06.018Z,7.45
2022-10-15T18:30:13.608Z,5.90
2022-10-15T18:36:15.974Z,6.50
2022-10-15T18:41:55.582Z,5.15
2022-10-15T18:46:47.536Z,8.23
2022-10-15T18:56:45.518Z,7.35
2022-10-15T19:21:31.273Z,7.40
2022-10-15T19:26:23.036Z,9.05
2022-10-15T19:31:36.463Z,7.38
2022-10-15T19:36:34.264Z,7.03
2022-10-15T19:41:25.859Z,5.47
2022-10-15T19:46:17.664Z,5.72
2022-10-15T19:51:09.266Z,2.80
2022-10-15T19:56:03.848Z,2.67
2022-10-15T20:00:55.436Z,8.05
2022-10-15T20:05:47.436Z,5.78
2022-10-15T20:10:44.584Z,4.78
2022-10-15T20:15:40.968Z,5.93
2022-10-15T20:20:36.317Z,1.95
2022-10-15T20:25:27.893Z,3.47
2022-10-15T20:30:21.324Z,4.95
2022-10-15T20:35:13.326Z,4.43
2022-10-15T20:40:05.622Z,5.05
2022-10-15T20:44:57.299Z,3.25
2022-10-15T20:49:52.622Z,4.57
2022-10-15T20:54:44.588Z,8.20
2022-10-15T20:59:36.758Z,4.07
2022-10-15T21:04:28.377Z,4.40
2022-10-15T21:09:20.115Z,3.70
2022-10-15T21:14:13.626Z,7.43
2022-10-15T21:19:05.346Z,4.78
2022-10-15T21:23:58.236Z,4.38
2022-10-15T21:28:58.347Z,5.07
2022-10-15T21:33:50.281Z,4.68
2022-10-15T21:38:42.571Z,5.50
2022-10-15T21:43:34.943Z,5.68
2022-10-15T21:48:27.398Z,5.78
2022-10-15T21:53:19.296Z,9.15
2022-10-15T21:58:10.981Z,6.72
2022-10-15T22:03:02.613Z,5.50
2022-10-15T22:07:54.491Z,7.82
2022-10-15T22:12:52.181Z,5.53
2022-10-15T22:17:43.943Z,6.40
2022-10-15T22:22:35.546Z,6.75
2022-10-15T22:27:27.431Z,6.20
2022-10-15T22:32:19.145Z,7.85
2022-10-15T22:37:10.746Z,3.88
2022-10-15T22:42:02.408Z,4.18
2022-10-15T22:46:54.003Z,6.50
2022-10-15T22:51:45.848Z,4.00
2022-10-15T22:56:38.100Z,2.72
2022-10-15T23:01:32.052Z,5.22
2022-10-15T23:06:25.865Z,2.88
2022-10-15T23:11:21.526Z,4.10
2022-10-15T23:16:19.628Z,4.75
2022-10-15T23:26:15.579Z,6.47
2022-10-15T23:31:07.440Z,10.70
2022-10-15T23:36:02.472Z,4.68
2022-10-15T23:41:08.665Z,5.90
2022-10-15T23:46:00.829Z,5.07
2022-10-15T23:50:52.692Z,4.60
2022-10-15T23:55:44.741Z,7.13
